createdAt,value
2023-02-14T00:03:41.254Z,5.93
2023-02-14T00:08:44.874Z,8.20
2023-02-14T00:14:12.702Z,6.73
2023-02-14T00:19:15.993Z,6.83
2023-02-14T00:24:22.505Z,6.03
2023-02-14T00:29:26.865Z,7.20
2023-02-14T00:34:29.704Z,6.77
2023-02-14T00:39:31.325Z,6.27
2023-02-14T00:44:32.873Z,6.60
2023-02-14T00:49:34.579Z,7.13
2023-02-14T00:54:36.112Z,7.10
2023-02-14T00:59:38.795Z,7.23
2023-02-14T01:04:41.186Z,7.60
2023-02-14T01:09:42.815Z,8.23
2023-02-14T01:14:44.403Z,7.67
2023-02-14T01:19:46.203Z,5.70
2023-02-14T01:24:47.922Z,6.80
2023-02-14T01:29:49.559Z,7.40
2023-02-14T01:34:51.177Z,6.77
2023-02-14T01:39:52.787Z,6.77
2023-02-14T01:45:04.153Z,8.93
2023-02-14T01:50:12.845Z,7.30
2023-02-14T01:55:17.793Z,8.33
2023-02-14T02:00:39.040Z,6.33
2023-02-14T02:05:48.421Z,7.30
2023-02-14T02:10:50.829Z,8.73
2023-02-14T02:16:28.708Z,9.70
2023-02-14T02:22:12.856Z,8.70
2023-02-14T02:27:30.323Z,11.27
2023-02-14T02:32:31.940Z,9.50
2023-02-14T02:37:54.650Z,9.33
2023-02-14T02:43:14.275Z,9.30
2023-02-14T02:48:20.366Z,10.17
2023-02-14T02:53:27.553Z,10.17
2023-02-14T02:58:38.801Z,11.27
2023-02-14T03:04:00.178Z,11.07
2023-02-14T03:09:13.196Z,8.37
2023-02-14T03:14:46.599Z,13.47
2023-02-14T03:20:17.408Z,10.67
2023-02-14T03:25:43.515Z,11.30
2023-02-14T03:31:00.714Z,10.50
2023-02-14T03:36:16.734Z,12.63
2023-02-14T03:41:21.977Z,11.97
2023-02-14T03:46:31.218Z,10.67
2023-02-14T03:51:34.485Z,12.57
2023-02-14T03:56:57.639Z,11.80
2023-02-14T04:02:15.325Z,11.97
2023-02-14T04:07:19.426Z,12.90
2023-02-14T04:12:29.418Z,13.33
2023-02-14T04:17:56.744Z,12.40
2023-02-14T04:22:58.585Z,12.30
2023-02-14T04:28:00.129Z,11.87
2023-02-14T04:33:01.786Z,14.30
2023-02-14T04:38:04.038Z,13.83
2023-02-14T04:43:07.425Z,13.17
2023-02-14T04:48:09.121Z,16.07
2023-02-14T04:53:10.726Z,15.17
2023-02-14T04:58:12.265Z,13.93
2023-02-14T05:03:13.809Z,15.80
2023-02-14T05:08:15.557Z,16.70
2023-02-14T05:13:18.107Z,15.07
2023-02-14T05:18:19.746Z,17.37
2023-02-14T05:23:21.857Z,14.47
2023-02-14T05:28:23.484Z,20.00
2023-02-14T05:33:25.702Z,16.53
2023-02-14T05:38:27.390Z,15.83
2023-02-14T05:43:30.253Z,18.13
2023-02-14T05:48:32.586Z,18.57
2023-02-14T05:53:34.392Z,17.20
2023-02-14T05:58:36.112Z,17.17
2023-02-14T06:03:37.746Z,19.50
2023-02-14T06:08:39.353Z,23.50
2023-02-14T06:13:41.521Z,18.67
2023-02-14T06:18:43.173Z,19.70
2023-02-14T06:23:44.742Z,18.40
2023-02-14T06:28:46.658Z,19.07
2023-02-14T06:33:48.295Z,15.20
2023-02-14T06:38:50.480Z,17.40
2023-02-14T06:43:54.293Z,13.63
2023-02-14T06:48:55.981Z,14.03
2023-02-14T06:53:57.592Z,14.03
2023-02-14T06:59:00.265Z,15.77
2023-02-14T07:04:01.979Z,20.90
2023-02-14T07:09:04.310Z,20.40
2023-02-14T07:14:06.015Z,17.63
2023-02-14T07:19:07.851Z,20.17
2023-02-14T07:24:09.767Z,17.93
2023-02-14T07:29:12.691Z,18.53
2023-02-14T07:34:14.410Z,17.17
2023-02-14T07:39:16.092Z,16.53
2023-02-14T07:44:17.652Z,17.83
2023-02-14T07:49:19.284Z,15.67
2023-02-14T07:54:21.306Z,15.70
2023-02-14T07:59:25.653Z,19.83
2023-02-14T08:04:27.687Z,19.50
2023-02-14T08:09:29.291Z,16.53
2023-02-14T08:14:30.886Z,16.53
2023-02-14T08:19:32.615Z,14.70
2023-02-14T08:24:34.255Z,14.67
2023-02-14T08:29:35.807Z,12.07
2023-02-14T08:34:37.536Z,11.40
2023-02-14T08:39:43.251Z,12.00
2023-02-14T08:44:44.991Z,13.13
2023-02-14T08:49:46.602Z,12.37
2023-02-14T08:54:49.064Z,15.13
2023-02-14T09:00:04.598Z,13.13
2023-02-14T09:05:08.138Z,12.93
2023-02-14T09:10:10.336Z,16.33
2023-02-14T09:15:12.416Z,14.93
2023-02-14T09:20:14.970Z,15.80
2023-02-14T09:25:16.880Z,12.37
2023-02-14T09:30:18.812Z,12.60
2023-02-14T09:35:20.598Z,15.73
2023-02-14T09:40:23.557Z,12.80
2023-02-14T09:45:26.974Z,13.83
2023-02-14T09:50:30.294Z,12.93
2023-02-14T09:55:40.091Z,13.80
2023-02-14T10:01:03.369Z,14.17
2023-02-14T10:06:38.168Z,15.10
2023-02-14T10:11:40.679Z,13.70
2023-02-14T10:16:47.493Z,13.37
2023-02-14T10:21:53.788Z,12.37
2023-02-14T10:27:02.075Z,13.20
2023-02-14T10:32:04.402Z,12.23
2023-02-14T10:37:30.619Z,16.30
2023-02-14T10:42:38.262Z,12.70
2023-02-14T10:47:58.399Z,12.37
2023-02-14T10:53:25.778Z,12.87
2023-02-14T10:58:29.678Z,12.80
2023-02-14T11:03:33.414Z,12.63
2023-02-14T11:08:37.489Z,13.03
2023-02-14T11:13:40.125Z,12.90
2023-02-14T11:18:41.829Z,12.93
2023-02-14T11:23:48.963Z,13.80
2023-02-14T11:29:02.510Z,12.70
2023-02-14T11:34:07.787Z,14.27
2023-02-14T11:39:29.811Z,14.03
2023-02-14T11:44:33.315Z,11.30
2023-02-14T11:49:36.791Z,12.77
2023-02-14T11:54:41.703Z,11.77
2023-02-14T11:59:48.059Z,12.83
2023-02-14T12:04:53.284Z,13.13
2023-02-14T12:10:21.994Z,12.37
2023-02-14T12:15:23.981Z,13.50
2023-02-14T12:21:04.032Z,12.10
2023-02-14T12:26:20.309Z,11.23
2023-02-14T12:31:22.116Z,11.27
2023-02-14T12:36:56.540Z,10.80
2023-02-14T12:42:18.527Z,9.67
2023-02-14T12:47:45.327Z,10.80
2023-02-14T12:53:14.513Z,12.17
2023-02-14T12:58:29.042Z,11.07
2023-02-14T13:03:35.313Z,12.27
2023-02-14T13:09:01.375Z,12.10
2023-02-14T13:14:35.650Z,10.57
2023-02-14T13:20:09.691Z,10.57
2023-02-14T13:25:33.512Z,9.73
2023-02-14T13:30:37.176Z,11.70
2023-02-14T13:35:40.028Z,10.63
2023-02-14T13:40:42.207Z,11.90
2023-02-14T13:45:54.286Z,13.97
2023-02-14T13:50:57.939Z,10.93
2023-02-14T13:56:02.982Z,11.43
2023-02-14T14:01:30.608Z,13.03
2023-02-14T14:07:15.417Z,10.00
2023-02-14T14:12:27.126Z,10.67
2023-02-14T14:17:29.161Z,10.90
2023-02-14T14:22:30.933Z,11.17
2023-02-14T14:27:35.938Z,9.67
2023-02-14T14:32:38.840Z,8.37
2023-02-14T14:37:46.875Z,9.63
2023-02-14T14:42:49.199Z,12.80
2023-02-14T14:47:54.196Z,9.23
2023-02-14T14:53:01.956Z,12.27
2023-02-14T14:58:08.260Z,11.93
2023-02-14T15:03:09.864Z,12.80
2023-02-14T15:08:22.770Z,10.13
2023-02-14T15:13:57.539Z,10.23
2023-02-14T15:19:01.491Z,10.27
2023-02-14T15:24:03.403Z,10.23
2023-02-14T15:29:06.352Z,10.93
2023-02-14T15:34:08.162Z,9.43
2023-02-14T15:39:12.956Z,10.63
2023-02-14T15:44:22.942Z,12.53
2023-02-14T15:49:31.760Z,13.83
2023-02-14T15:54:35.970Z,10.87
2023-02-14T15:59:41.731Z,11.23
2023-02-14T16:04:43.489Z,11.67
2023-02-14T16:09:45.027Z,12.20
2023-02-14T16:15:00.985Z,10.93
2023-02-14T16:20:29.075Z,13.80
2023-02-14T16:25:31.398Z,13.10
2023-02-14T16:30:33.026Z,13.13
2023-02-14T16:35:34.596Z,14.37
2023-02-14T16:40:36.155Z,12.27
2023-02-14T16:45:37.794Z,14.27
2023-02-14T16:50:40.425Z,13.67
2023-02-14T16:55:42.056Z,14.60
2023-02-14T17:00:43.976Z,14.10
2023-02-14T17:05:45.918Z,14.33
2023-02-14T17:10:48.463Z,15.00
2023-02-14T17:15:50.821Z,15.07
2023-02-14T17:20:52.648Z,16.33
2023-02-14T17:25:55.317Z,14.43
2023-02-14T17:31:01.270Z,18.33
2023-02-14T17:36:07.276Z,17.47
2023-02-14T17:41:13.667Z,16.17
2023-02-14T17:46:18.556Z,16.20
2023-02-14T17:51:20.560Z,13.77
2023-02-14T17:56:24.029Z,16.73
2023-02-14T18:01:28.508Z,16.03
2023-02-14T18:06:31.734Z,15.33
2023-02-14T18:11:34.433Z,15.10
2023-02-14T18:16:40.256Z,15.07
2023-02-14T18:21:43.562Z,15.97
2023-02-14T18:26:45.477Z,16.03
2023-02-14T18:31:47.274Z,17.20
2023-02-14T18:36:48.915Z,17.23
2023-02-14T18:41:50.575Z,18.93
2023-02-14T18:46:52.285Z,18.77
2023-02-14T18:51:54.784Z,16.63
2023-02-14T18:56:56.423Z,18.57
2023-02-14T19:01:58.116Z,19.17
2023-02-14T19:06:59.699Z,17.77
2023-02-14T19:12:01.333Z,18.80
2023-02-14T19:17:04.394Z,21.10
2023-02-14T19:22:06.163Z,17.53
2023-02-14T19:27:07.819Z,18.20
2023-02-14T19:32:09.449Z,19.00
2023-02-14T19:37:11.043Z,17.63
2023-02-14T19:42:12.944Z,18.03
2023-02-14T19:47:28.762Z,19.50
2023-02-14T19:52:32.842Z,16.23
2023-02-14T19:57:34.497Z,20.60
2023-02-14T20:02:36.207Z,16.30
2023-02-14T20:07:37.851Z,19.00
2023-02-14T20:12:39.526Z,17.20
2023-02-14T20:17:41.617Z,20.10
2023-02-14T20:22:43.211Z,20.47
2023-02-14T20:27:44.795Z,24.37
2023-02-14T20:32:46.513Z,23.97
2023-02-14T20:37:48.031Z,19.63
2023-02-14T20:42:49.674Z,17.33
2023-02-14T20:47:52.243Z,18.90
2023-02-14T20:52:55.846Z,18.57
2023-02-14T20:58:02.288Z,20.60
2023-02-14T21:03:03.999Z,20.23
2023-02-14T21:08:05.646Z,20.17
2023-02-14T21:13:07.306Z,21.90
2023-02-14T21:18:08.938Z,20.23
2023-02-14T21:23:10.669Z,20.67
2023-02-14T21:28:12.772Z,20.00
2023-02-14T21:33:16.066Z,19.90
2023-02-14T21:38:18.175Z,22.63
2023-02-14T21:43:19.730Z,19.73
2023-02-14T21:48:39.695Z,21.27
2023-02-14T21:53:42.566Z,20.67
2023-02-14T21:58:44.174Z,19.73
2023-02-14T22:03:46.246Z,20.07
2023-02-14T22:08:53.242Z,22.87
2023-02-14T22:13:55.711Z,20.20
2023-02-14T22:18:57.591Z,21.97
2023-02-14T22:24:00.163Z,22.57
2023-02-14T22:29:02.304Z,22.20
2023-02-14T22:34:05.735Z,23.27
2023-02-14T22:39:07.535Z,24.30
2023-02-14T22:44:09.341Z,21.23
2023-02-14T22:49:11.174Z,25.70
2023-02-14T22:54:15.385Z,26.30
2023-02-14T22:59:20.235Z,22.07
2023-02-14T23:04:24.237Z,26.10
2023-02-14T23:09:26.174Z,25.93
2023-02-14T23:14:46.052Z,25.03
2023-02-14T23:20:06.630Z,24.00
2023-02-14T23:25:10.385Z,23.33
2023-02-14T23:30:15.075Z,30.00
2023-02-14T23:35:16.636Z,20.30
2023-02-14T23:40:18.230Z,25.40
2023-02-14T23:45:34.971Z,23.87
2023-02-14T23:50:36.559Z,29.17
2023-02-14T23:55:38.201Z,24.93
